Terminal Aerodrome Forecast
Issued by NWS Twin Cities, MN

Home | Current Version | Previous Version | Graphics & Text | Print | Product List | Glossary On
Versions: 1 2 3 4 5 6 7 8 9 10 11 12 13 14 15 16 17 18
000
FTUS43 KMPX 190520
TAFSTC
TAF
KSTC 190520Z 1906/2006 VRB02KT 6SM BR SKC
     FM190700 00000KT 4SM BR SKC
     FM191000 00000KT 2SM BR SCT002
      TEMPO 1910/1913 1/4SM FG VV002
     FM191300 23005KT P6SM SKC
     FM191900 20008KT P6SM SKC
     FM200000 18006KT P6SM SKC=

USA.gov is the U.S. government's official web portal to all federal, state and local government web resources and services.